Terminal Aerodrome Forecast
Issued by NWS North Platte, NE

Home | Current Version | Previous Version | Graphics & Text | Print | Product List | Glossary On
Versions: 1 2 3 4 5 6 7 8 9 10 11 12
980
FTUS43 KLBF 231133
TAFVTN
TAF
KVTN 231133Z 2312/2412 18009KT P6SM SCT200
     FM231900 17017G24KT P6SM BKN120
     FM240000 17016G22KT P6SM VCTS SCT070CB BKN120
      TEMPO 2402/2406 VRB20G35KT 4SM -TSRA BKN030CB
     FM240600 16009KT P6SM VCTS BKN120CB
     FM240900 16012KT P6SM OVC120=

USA.gov is the U.S. government's official web portal to all federal, state and local government web resources and services.